Time;durP1;ratioP1;P1;durP2;ratioP2;P2;SDS_P1;SDS_P2;PMS_P1;PMS_P2;Temp;Humidity;BMP_temperature;BMP_pressure;BME280_temperature;BME280_humidity;BME280_pressure;Samples;Min_cycle;Max_cycle;Signal;HPM_P1;HPM_P2
2022/01/18 00:01:51;;;;;;;60.92;27.38;;;4.50;99.90;;;;;;6125471;23;20009;-87
2022/01/18 00:04:17;;;;;;;59.40;28.58;;;4.00;99.90;;;;;;6125195;23;20017;-86
2022/01/18 00:06:48;;;;;;;65.57;28.98;;;4.20;99.90;;;;;;6124962;23;20061;-87
2022/01/18 00:09:14;;;;;;;57.17;28.48;;;4.70;99.90;;;;;;6125155;23;20006;-86
2022/01/18 00:11:46;;;;;;;59.42;26.52;;;4.50;99.90;;;;;;6124986;23;20386;-86
2022/01/18 00:17:18;;;;;;;60.88;28.20;;;4.10;99.90;;;;;;6007590;23;20020;-87
2022/01/18 00:19:53;;;;;;;68.15;32.42;;;4.60;99.90;;;;;;6007727;23;20075;-87
2022/01/18 00:22:19;;;;;;;65.43;28.70;;;4.60;99.90;;;;;;6006845;23;20012;-87
2022/01/18 00:24:45;;;;;;;61.55;27.80;;;4.50;99.90;;;;;;6006352;23;20035;-86
2022/01/18 00:27:14;;;;;;;62.17;28.20;;;4.00;99.90;;;;;;6006273;23;20019;-87
2022/01/18 00:29:51;;;;;;;63.95;29.08;;;4.10;99.90;;;;;;5984089;23;20515;-87
2022/01/18 00:32:35;;;;;;;66.65;29.05;;;4.30;99.90;;;;;;6007070;23;20015;-87
2022/01/18 00:35:01;;;;;;;61.20;29.15;;;4.60;99.90;;;;;;6006981;23;20011;-87
2022/01/18 00:37:35;;;;;;;57.40;27.25;;;4.10;99.90;;;;;;6006764;23;20024;-86
2022/01/18 00:40:03;;;;;;;68.97;27.58;;;4.60;99.90;;;;;;6006600;23;20044;-86
2022/01/18 00:42:28;;;;;;;60.17;26.70;;;4.20;99.90;;;;;;6006092;23;20101;-87
2022/01/18 00:44:54;;;;;;;57.78;25.33;;;4.50;99.90;;;;;;6007747;23;20639;-87
2022/01/18 00:47:20;;;;;;;64.15;27.88;;;4.20;99.90;;;;;;6006848;23;20008;-87
2022/01/18 00:49:47;;;;;;;57.90;27.50;;;4.60;99.90;;;;;;6007538;23;20505;-87
2022/01/18 00:52:17;;;;;;;63.10;27.90;;;4.60;99.90;;;;;;6041179;23;20073;-86
2022/01/18 00:54:46;;;;;;;62.95;27.65;;;4.40;99.90;;;;;;6124161;23;20053;-86
2022/01/18 00:57:12;;;;;;;60.80;27.80;;;4.00;99.90;;;;;;6124122;23;20011;-87
2022/01/18 00:59:40;;;;;;;62.25;27.48;;;4.40;99.90;;;;;;6124941;23;20059;-87
2022/01/18 01:02:07;;;;;;;57.05;25.58;;;4.00;99.90;;;;;;6124799;23;20062;-87
2022/01/18 01:04:37;;;;;;;60.70;26.17;;;4.70;99.90;;;;;;6124299;23;20340;-86
2022/01/18 01:07:03;;;;;;;56.65;26.23;;;4.00;99.90;;;;;;6124223;23;20002;-87
2022/01/18 01:09:29;;;;;;;61.33;27.08;;;4.00;99.90;;;;;;6123883;23;20009;-87
2022/01/18 01:11:54;;;;;;;55.00;26.25;;;4.60;99.90;;;;;;6123671;23;20044;-87
2022/01/18 01:14:23;;;;;;;53.95;24.83;;;4.00;99.90;;;;;;6124298;23;20088;-87
2022/01/18 01:33:35;;;;;;;45.83;23.48;;;4.30;99.90;;;;;;6124743;23;20009;-86
2022/01/18 01:44:01;;;;;;;52.00;24.73;;;3.70;99.90;;;;;;6123648;23;20021;-88
2022/01/18 01:46:28;;;;;;;61.25;25.90;;;3.80;99.90;;;;;;6124029;23;20005;-87
2022/01/18 01:48:56;;;;;;;53.25;25.15;;;3.90;99.90;;;;;;6124512;23;20006;-87
2022/01/18 01:51:29;;;;;;;62.05;26.65;;;3.80;99.90;;;;;;6124540;23;20317;-87
2022/01/18 01:53:56;;;;;;;57.97;25.77;;;3.70;99.90;;;;;;6123562;23;20010;-87
2022/01/18 01:56:21;;;;;;;65.13;28.08;;;3.60;99.90;;;;;;6124542;23;19998;-86
2022/01/18 01:58:47;;;;;;;69.82;28.88;;;3.70;99.90;;;;;;6123460;23;20069;-87
2022/01/18 02:01:13;;;;;;;65.75;29.08;;;4.30;99.90;;;;;;6124655;23;20057;-87
2022/01/18 02:03:38;;;;;;;70.28;32.00;;;3.60;99.90;;;;;;6124287;23;20002;-87
2022/01/18 02:06:04;;;;;;;67.45;29.90;;;3.60;99.90;;;;;;6124372;23;19998;-86
2022/01/18 02:08:30;;;;;;;63.70;28.88;;;3.80;99.90;;;;;;6123558;23;20005;-87
2022/01/18 02:10:55;;;;;;;58.75;26.73;;;3.60;99.90;;;;;;6124098;23;20341;-86
2022/01/18 02:13:21;;;;;;;63.72;27.73;;;3.60;99.90;;;;;;6123922;23;20053;-86
2022/01/18 02:24:03;;;;;;;58.25;25.20;;;3.60;99.90;;;;;;6123716;23;20085;-87
2022/01/18 02:26:28;;;;;;;55.75;24.90;;;3.50;99.90;;;;;;6124249;23;20452;-87
2022/01/18 02:28:57;;;;;;;52.20;24.77;;;3.60;99.90;;;;;;6124584;23;20034;-86
2022/01/18 02:31:23;;;;;;;60.65;26.77;;;3.60;99.90;;;;;;6098122;23;20030;-86
2022/01/18 02:33:48;;;;;;;56.97;25.38;;;4.30;99.90;;;;;;6124351;23;20009;-87
2022/01/18 02:36:14;;;;;;;54.20;25.77;;;3.70;99.90;;;;;;6124075;23;20014;-87
2022/01/18 02:38:40;;;;;;;57.60;25.80;;;4.10;99.90;;;;;;6122874;23;20013;-87
2022/01/18 02:41:07;;;;;;;43.17;21.75;;;3.80;99.90;;;;;;6123808;23;20341;-87
2022/01/18 02:43:50;;;;;;;51.38;23.30;;;3.60;99.90;;;;;;6124142;23;20006;-86
2022/01/18 02:46:16;;;;;;;48.30;23.83;;;4.30;99.90;;;;;;6124021;23;20006;-86
2022/01/18 02:48:42;;;;;;;46.38;23.70;;;3.90;99.90;;;;;;6124685;23;20443;-86
2022/01/18 02:51:08;;;;;;;41.15;21.10;;;3.50;99.90;;;;;;6124090;23;20022;-85
2022/01/18 02:54:00;;;;;;;44.55;22.88;;;4.30;99.90;;;;;;6123165;23;20006;-87
2022/01/18 02:56:29;;;;;;;47.00;22.05;;;3.60;99.90;;;;;;6125815;23;20053;-86
2022/01/18 02:59:03;;;;;;;42.65;21.50;;;4.10;99.90;;;;;;6126608;23;20014;-84
2022/01/18 03:04:14;;;;;;;38.30;20.95;;;3.60;99.90;;;;;;6125786;23;20518;-87
2022/01/18 03:06:39;;;;;;;35.47;19.70;;;3.50;99.90;;;;;;6124140;23;20025;-87
2022/01/18 03:09:05;;;;;;;37.50;20.00;;;3.60;99.90;;;;;;6125378;23;20006;-86
2022/01/18 03:11:31;;;;;;;34.53;19.27;;;3.90;99.90;;;;;;6125496;23;20009;-87
2022/01/18 03:13:56;;;;;;;34.95;20.52;;;3.50;99.90;;;;;;6126144;23;20041;-87
2022/01/18 03:16:22;;;;;;;34.58;18.45;;;3.40;99.90;;;;;;6125098;23;20006;-86
2022/01/18 03:18:47;;;;;;;35.63;19.67;;;3.40;99.90;;;;;;6125519;23;20010;-87
2022/01/18 03:21:13;;;;;;;34.50;18.27;;;4.00;99.90;;;;;;6124556;23;20010;-86
2022/01/18 03:23:39;;;;;;;33.28;19.15;;;4.00;99.90;;;;;;6126131;23;20014;-86
2022/01/18 03:26:14;;;;;;;36.00;20.48;;;3.90;99.90;;;;;;6125286;23;20429;-86
2022/01/18 03:28:40;;;;;;;34.47;19.45;;;3.90;99.90;;;;;;6125478;23;20010;-87
2022/01/18 03:31:06;;;;;;;32.53;19.52;;;3.40;99.90;;;;;;6125201;23;20008;-86
2022/01/18 03:33:32;;;;;;;32.35;18.77;;;3.30;99.90;;;;;;6125597;23;20057;-86
2022/01/18 03:35:57;;;;;;;30.52;17.98;;;3.90;99.90;;;;;;6124521;23;20006;-87
2022/01/18 03:38:29;;;;;;;34.05;18.33;;;3.30;99.90;;;;;;6125410;23;20010;-86
2022/01/18 03:40:57;;;;;;;34.55;17.98;;;3.40;99.90;;;;;;6125897;23;20006;-87
2022/01/18 03:43:23;;;;;;;31.23;17.73;;;3.80;99.90;;;;;;6125173;23;20017;-87
2022/01/18 03:45:51;;;;;;;35.40;18.85;;;3.30;99.90;;;;;;6125615;23;20022;-86
2022/01/18 03:50:58;;;;;;;34.60;19.08;;;3.30;99.90;;;;;;6125136;23;20006;-84
2022/01/18 03:53:23;;;;;;;36.35;18.98;;;3.80;99.90;;;;;;6125627;23;20006;-87
2022/01/18 03:55:50;;;;;;;30.90;18.65;;;3.80;99.90;;;;;;6125138;23;20054;-86
2022/01/18 03:58:16;;;;;;;32.17;19.05;;;3.30;99.90;;;;;;6125496;23;20097;-87
2022/01/18 04:00:42;;;;;;;33.22;19.52;;;3.80;99.90;;;;;;6124887;23;20029;-87
2022/01/18 04:03:07;;;;;;;36.33;19.25;;;3.30;99.90;;;;;;6125275;23;20428;-87
2022/01/18 04:05:33;;;;;;;30.90;18.20;;;3.70;99.90;;;;;;6123613;23;20021;-87
2022/01/18 04:07:59;;;;;;;33.92;18.90;;;3.40;99.90;;;;;;6124981;23;20006;-84
2022/01/18 04:10:24;;;;;;;38.88;19.25;;;3.70;99.90;;;;;;6125416;23;19998;-87
2022/01/18 04:12:50;;;;;;;35.00;18.95;;;3.60;99.90;;;;;;6124821;23;20010;-87
2022/01/18 04:15:17;;;;;;;34.63;18.83;;;3.20;99.90;;;;;;6124514;23;20022;-86
2022/01/18 04:18:07;;;;;;;37.13;19.45;;;3.20;99.90;;;;;;6124882;23;20006;-87
2022/01/18 04:26:04;;;;;;;35.90;19.35;;;3.90;99.90;;;;;;6124775;23;20507;-87
2022/01/18 04:28:41;;;;;;;33.85;19.25;;;3.80;99.90;;;;;;6125071;23;20013;-87
2022/01/18 04:31:09;;;;;;;32.28;18.25;;;3.30;99.90;;;;;;6125110;23;20444;-84
2022/01/18 04:33:37;;;;;;;32.72;19.02;;;3.70;99.90;;;;;;6124040;23;20002;-87
2022/01/18 04:36:07;;;;;;;33.20;19.10;;;3.50;99.90;;;;;;6123835;23;20081;-87
2022/01/18 04:38:35;;;;;;;34.83;19.27;;;3.30;99.90;;;;;;6124831;23;20020;-87
2022/01/18 04:41:06;;;;;;;38.35;19.60;;;3.30;99.90;;;;;;6125267;23;20021;-87
2022/01/18 04:48:48;;;;;;;33.63;19.15;;;3.20;99.90;;;;;;6124403;23;20012;-87
2022/01/18 04:51:15;;;;;;;38.22;20.10;;;3.30;99.90;;;;;;6124129;23;20029;-87
2022/01/18 04:53:54;;;;;;;38.65;20.85;;;3.70;99.90;;;;;;6098607;23;20083;-87
2022/01/18 04:59:07;;;;;;;37.47;19.98;;;3.20;99.90;;;;;;6125358;23;20045;-87
2022/01/18 05:01:35;;;;;;;33.33;19.27;;;3.20;99.90;;;;;;6124829;23;20005;-87
2022/01/18 05:04:00;;;;;;;40.30;20.90;;;3.90;99.90;;;;;;6122751;23;20005;-87
2022/01/18 05:06:26;;;;;;;36.70;20.25;;;3.20;99.90;;;;;;6124534;23;20002;-87
2022/01/18 05:08:52;;;;;;;39.20;20.88;;;3.20;99.90;;;;;;6124945;23;20030;-87
2022/01/18 05:11:20;;;;;;;37.58;20.50;;;3.10;99.90;;;;;;6124037;23;20421;-87
2022/01/18 05:14:09;;;;;;;37.47;20.63;;;3.60;99.90;;;;;;6098302;23;20014;-87
2022/01/18 05:24:32;;;;;;;39.63;20.08;;;4.00;99.90;;;;;;6123917;23;20052;-87
2022/01/18 05:27:00;;;;;;;40.28;20.33;;;3.80;99.90;;;;;;6124548;23;20504;-87
2022/01/18 05:29:26;;;;;;;38.22;20.23;;;3.90;99.90;;;;;;6123854;23;19998;-87
2022/01/18 05:31:52;;;;;;;39.55;21.30;;;3.90;99.90;;;;;;6123502;23;20326;-87
2022/01/18 05:34:18;;;;;;;43.53;21.00;;;3.30;99.90;;;;;;6123534;23;20006;-87
2022/01/18 05:36:44;;;;;;;41.13;21.73;;;3.90;99.90;;;;;;6124245;23;20560;-87
2022/01/18 05:39:10;;;;;;;42.30;20.35;;;3.60;99.90;;;;;;6123981;23;20045;-86
2022/01/18 05:41:38;;;;;;;41.95;21.17;;;3.80;99.90;;;;;;6124882;23;20057;-87
2022/01/18 05:44:04;;;;;;;43.10;20.80;;;3.90;99.90;;;;;;6124127;23;20089;-87
2022/01/18 05:46:30;;;;;;;42.22;21.73;;;3.20;99.90;;;;;;6123576;23;20049;-87
2022/01/18 05:48:56;;;;;;;39.83;20.90;;;3.90;99.90;;;;;;6123759;23;20328;-86
2022/01/18 05:51:21;;;;;;;37.83;20.67;;;3.30;99.90;;;;;;6098115;23;20026;-87
2022/01/18 05:53:47;;;;;;;39.03;21.75;;;3.30;99.90;;;;;;6124670;23;20002;-87
2022/01/18 05:56:13;;;;;;;38.35;20.65;;;3.90;99.90;;;;;;6124759;23;20006;-87
2022/01/18 05:58:44;;;;;;;50.50;28.50;;;3.30;99.90;;;;;;6124242;23;20069;-88
2022/01/18 06:01:14;;;;;;;54.38;29.70;;;3.40;99.90;;;;;;6124044;23;20006;-87
2022/01/18 06:04:04;;;;;;;39.90;22.63;;;3.40;99.90;;;;;;6122946;23;20013;-88
2022/01/18 06:09:11;;;;;;;40.65;21.98;;;3.40;99.90;;;;;;6124054;23;20456;-87
2022/01/18 06:11:36;;;;;;;38.83;21.17;;;3.90;99.90;;;;;;6124645;23;20029;-86
2022/01/18 06:14:02;;;;;;;36.95;20.35;;;3.30;99.90;;;;;;6124384;23;20407;-87
2022/01/18 06:16:28;;;;;;;39.95;21.95;;;3.40;99.90;;;;;;6124001;23;20022;-87
2022/01/18 06:18:54;;;;;;;41.70;22.55;;;3.30;99.90;;;;;;6124075;23;20018;-87
2022/01/18 06:21:21;;;;;;;36.55;19.30;;;3.30;99.90;;;;;;6124061;23;20425;-87
2022/01/18 06:23:46;;;;;;;35.88;21.48;;;3.40;99.90;;;;;;6123628;23;20002;-87
2022/01/18 06:26:16;;;;;;;37.97;21.05;;;3.80;99.90;;;;;;6124055;23;20062;-86
2022/01/18 06:28:42;;;;;;;36.63;20.00;;;3.80;99.90;;;;;;6124121;23;20774;-87
2022/01/18 06:31:08;;;;;;;40.05;20.73;;;3.40;99.90;;;;;;6126074;23;20001;-87
2022/01/18 06:33:34;;;;;;;40.22;19.95;;;4.10;99.90;;;;;;6099388;23;20013;-87
2022/01/18 06:35:59;;;;;;;36.03;20.67;;;3.50;99.90;;;;;;6126001;23;20441;-88
2022/01/18 06:38:25;;;;;;;39.08;20.30;;;4.10;99.90;;;;;;6125569;23;20014;-86
2022/01/18 06:40:51;;;;;;;45.22;22.95;;;4.10;99.90;;;;;;6125837;23;19998;-87
2022/01/18 06:43:16;;;;;;;37.20;22.00;;;4.00;99.90;;;;;;6125560;23;20006;-87
2022/01/18 06:45:42;;;;;;;41.75;22.52;;;3.40;99.90;;;;;;6126132;23;20029;-87
2022/01/18 06:48:07;;;;;;;38.78;21.55;;;3.90;99.90;;;;;;6125726;23;20006;-87
2022/01/18 06:50:35;;;;;;;43.92;22.70;;;4.00;99.90;;;;;;6125421;23;20006;-87
2022/01/18 06:53:01;;;;;;;38.80;19.95;;;4.00;99.90;;;;;;6126066;23;19998;-87
2022/01/18 06:55:27;;;;;;;36.58;20.00;;;3.30;99.90;;;;;;6125534;23;20006;-87
2022/01/18 06:57:53;;;;;;;35.58;18.52;;;3.30;99.90;;;;;;6124693;23;20013;-86
2022/01/18 07:00:19;;;;;;;33.22;18.65;;;3.30;99.90;;;;;;6125903;23;20542;-87
2022/01/18 07:02:44;;;;;;;36.63;18.48;;;3.20;99.90;;;;;;6125785;23;20333;-86
2022/01/18 07:05:13;;;;;;;36.63;19.63;;;3.20;99.90;;;;;;6125393;23;20077;-87
2022/01/18 07:07:40;;;;;;;35.88;19.38;;;3.60;99.90;;;;;;6125621;23;20459;-87
2022/01/18 07:10:07;;;;;;;34.35;18.02;;;3.80;99.90;;;;;;6125144;23;20009;-87
2022/01/18 07:12:34;;;;;;;31.13;18.00;;;3.20;99.90;;;;;;6125118;23;20439;-86
2022/01/18 07:15:02;;;;;;;33.88;18.23;;;3.50;99.90;;;;;;6125291;23;20480;-87
2022/01/18 07:17:28;;;;;;;33.00;19.17;;;3.20;99.90;;;;;;6125679;23;20013;-87
2022/01/18 07:19:53;;;;;;;36.47;19.10;;;3.20;99.90;;;;;;6124880;23;20379;-87
2022/01/18 07:22:19;;;;;;;34.25;18.50;;;3.70;99.90;;;;;;6125272;23;20006;-87
2022/01/18 07:24:46;;;;;;;35.08;19.00;;;3.10;99.90;;;;;;6125345;23;19998;-86
2022/01/18 07:27:13;;;;;;;34.10;18.92;;;3.80;99.90;;;;;;6125276;23;20009;-87
2022/01/18 07:29:41;;;;;;;38.22;18.63;;;3.20;99.90;;;;;;6125210;23;20010;-85
2022/01/18 07:32:08;;;;;;;32.75;17.38;;;3.40;99.90;;;;;;6125880;23;20456;-87
2022/01/18 07:34:35;;;;;;;33.15;18.63;;;3.20;99.90;;;;;;6124555;23;20085;-86
2022/01/18 07:37:02;;;;;;;35.78;19.25;;;3.80;99.90;;;;;;6126237;23;20014;-86
2022/01/18 07:39:28;;;;;;;34.42;18.80;;;3.30;99.90;;;;;;6125783;23;20010;-86
2022/01/18 07:41:54;;;;;;;33.05;18.67;;;4.00;99.90;;;;;;6123901;23;20002;-89
2022/01/18 07:44:19;;;;;;;33.88;18.55;;;3.90;99.90;;;;;;6126146;23;20061;-90
2022/01/18 07:46:45;;;;;;;30.73;18.23;;;3.30;99.90;;;;;;6100440;23;20104;-90
2022/01/18 07:49:11;;;;;;;35.75;19.70;;;3.30;99.90;;;;;;6099480;23;20321;-90
2022/01/18 07:51:36;;;;;;;34.85;18.60;;;3.10;99.90;;;;;;6100358;23;20034;-88
2022/01/18 07:54:02;;;;;;;35.50;18.67;;;3.20;99.90;;;;;;6099210;23;20472;-89
2022/01/18 07:56:28;;;;;;;36.05;19.75;;;3.20;99.90;;;;;;6098722;23;20682;-89
2022/01/18 07:58:54;;;;;;;34.97;18.77;;;3.20;99.90;;;;;;6125908;23;20037;-89
2022/01/18 08:01:20;;;;;;;35.30;19.75;;;3.20;99.90;;;;;;6125337;23;20049;-90
2022/01/18 08:03:46;;;;;;;33.53;18.95;;;3.30;99.90;;;;;;6124311;23;20006;-90
2022/01/18 08:06:12;;;;;;;34.47;18.55;;;3.20;99.90;;;;;;6099816;23;20085;-89
2022/01/18 08:08:39;;;;;;;34.42;18.98;;;3.20;99.90;;;;;;6125108;23;20002;-89
2022/01/18 08:11:06;;;;;;;33.00;17.42;;;3.30;99.90;;;;;;6124900;23;20323;-89
2022/01/18 08:13:38;;;;;;;34.03;19.90;;;3.40;99.90;;;;;;6124820;23;20010;-90
2022/01/18 08:18:50;;;;;;;32.95;17.80;;;3.40;99.90;;;;;;6124067;23;20017;-89
2022/01/18 08:21:16;;;;;;;33.85;18.45;;;4.10;99.90;;;;;;6125987;23;20030;-89
2022/01/18 08:23:42;;;;;;;34.65;18.40;;;4.10;99.90;;;;;;6125124;23;20010;-89
2022/01/18 08:26:08;;;;;;;34.17;18.52;;;4.30;99.90;;;;;;6124882;23;20441;-89
2022/01/18 08:28:34;;;;;;;38.05;19.60;;;4.50;99.90;;;;;;6098965;23;20089;-90
2022/01/18 08:30:59;;;;;;;38.00;20.50;;;3.60;99.90;;;;;;6099216;23;20005;-90
2022/01/18 08:33:25;;;;;;;34.70;19.42;;;4.30;99.90;;;;;;6124231;23;20006;-89
2022/01/18 08:35:51;;;;;;;42.22;25.42;;;4.40;99.90;;;;;;6124925;23;20002;-89
2022/01/18 08:38:17;;;;;;;34.72;20.25;;;3.70;99.90;;;;;;6124078;23;20018;-88
2022/01/18 08:40:43;;;;;;;36.63;21.23;;;4.40;99.90;;;;;;6124319;23;20492;-91
2022/01/18 08:43:09;;;;;;;43.40;24.27;;;4.30;99.90;;;;;;6125405;23;20080;-92
2022/01/18 08:45:35;;;;;;;49.25;26.35;;;3.70;99.90;;;;;;6099507;23;20453;-91
2022/01/18 08:48:01;;;;;;;46.40;23.98;;;4.30;99.90;;;;;;6124877;23;20006;-92
2022/01/18 08:50:27;;;;;;;39.35;19.73;;;3.60;99.90;;;;;;6125685;23;20009;-93
2022/01/18 08:52:53;;;;;;;33.03;19.20;;;3.70;99.90;;;;;;6099167;23;20010;-92
2022/01/18 08:55:20;;;;;;;60.72;32.30;;;3.70;99.90;;;;;;6098780;23;20081;-91
2022/01/18 08:57:46;;;;;;;81.38;41.45;;;4.30;99.90;;;;;;6099798;23;20018;-92
2022/01/18 09:00:14;;;;;;;38.13;21.05;;;3.70;99.90;;;;;;6099765;23;20010;-91
2022/01/18 09:02:41;;;;;;;46.40;24.75;;;3.80;99.90;;;;;;6123718;23;20005;-92
2022/01/18 09:05:07;;;;;;;40.53;20.08;;;4.40;99.90;;;;;;6100169;23;20002;-92
2022/01/18 09:07:36;;;;;;;56.15;30.58;;;3.80;99.90;;;;;;6098765;23;20093;-87
2022/01/18 09:10:06;;;;;;;36.78;20.33;;;4.20;99.90;;;;;;6125207;23;20081;-89
2022/01/18 09:12:32;;;;;;;40.05;21.45;;;3.70;99.90;;;;;;6124675;23;20002;-90
2022/01/18 09:15:00;;;;;;;40.70;23.02;;;3.80;99.90;;;;;;6124669;23;20030;-92
2022/01/18 09:17:28;;;;;;;56.83;30.50;;;4.50;99.90;;;;;;6125455;23;20065;-91
2022/01/18 09:19:54;;;;;;;40.03;21.75;;;4.20;99.90;;;;;;6124284;23;20069;-89
2022/01/18 09:22:20;;;;;;;36.35;20.80;;;3.80;99.90;;;;;;6125310;23;20025;-91
2022/01/18 09:24:46;;;;;;;39.00;22.00;;;3.80;99.90;;;;;;6123547;23;20012;-90
2022/01/18 09:27:12;;;;;;;36.75;20.13;;;4.40;99.90;;;;;;6098768;23;20034;-88
2022/01/18 09:29:39;;;;;;;39.60;22.42;;;3.90;99.90;;;;;;6124753;23;20017;-89
2022/01/18 09:32:06;;;;;;;37.08;20.52;;;3.90;99.90;;;;;;6098794;23;20333;-89
2022/01/18 09:34:32;;;;;;;34.22;19.83;;;4.00;99.90;;;;;;6125241;23;20010;-90
2022/01/18 09:36:58;;;;;;;37.53;20.88;;;3.80;99.90;;;;;;6098335;23;20009;-90
2022/01/18 09:39:25;;;;;;;33.47;18.60;;;4.40;99.90;;;;;;6123671;23;20080;-89
2022/01/18 09:41:53;;;;;;;35.08;19.48;;;4.40;99.90;;;;;;6124847;23;20010;-89
2022/01/18 09:44:19;;;;;;;39.25;22.35;;;4.10;99.90;;;;;;6124541;23;20077;-89
2022/01/18 09:46:47;;;;;;;32.28;18.63;;;4.50;99.90;;;;;;6098267;23;20399;-91
2022/01/18 09:49:13;;;;;;;34.58;19.75;;;4.70;99.90;;;;;;6124685;23;20002;-88
2022/01/18 09:51:39;;;;;;;36.95;19.23;;;4.70;99.90;;;;;;6124216;23;20017;-90
2022/01/18 09:54:04;;;;;;;35.40;19.50;;;4.30;99.90;;;;;;6124873;23;20432;-89
2022/01/18 09:56:30;;;;;;;32.17;19.40;;;4.10;99.90;;;;;;6098297;23;20089;-87
2022/01/18 09:58:56;;;;;;;33.67;18.90;;;4.30;99.90;;;;;;6099094;23;20500;-89
2022/01/18 10:01:21;;;;;;;34.85;19.00;;;5.00;99.90;;;;;;6123858;23;19998;-89
2022/01/18 10:03:47;;;;;;;30.90;18.95;;;4.40;99.90;;;;;;6124973;23;20006;-89
2022/01/18 10:06:17;;;;;;;29.00;18.08;;;5.10;99.90;;;;;;6125780;23;20079;-89
2022/01/18 10:08:48;;;;;;;31.92;18.10;;;5.00;99.90;;;;;;6126382;23;20080;-88
2022/01/18 10:11:17;;;;;;;32.10;18.33;;;4.90;99.90;;;;;;6126543;23;20009;-89
2022/01/18 10:13:46;;;;;;;32.42;17.90;;;4.90;99.90;;;;;;6126884;23;20010;-90
2022/01/18 10:16:20;;;;;;;31.13;17.50;;;5.00;99.90;;;;;;6126453;23;20038;-91
2022/01/18 10:19:00;;;;;;;27.75;17.02;;;4.80;99.90;;;;;;6126476;23;20018;-90
2022/01/18 10:21:30;;;;;;;29.65;16.60;;;5.00;99.90;;;;;;6126112;23;20445;-88
2022/01/18 10:24:21;;;;;;;31.73;16.73;;;5.60;99.90;;;;;;6127062;23;20006;-88
2022/01/18 10:26:49;;;;;;;25.20;15.95;;;5.10;99.90;;;;;;6127322;23;20082;-87
2022/01/18 10:29:16;;;;;;;27.35;14.98;;;5.50;99.90;;;;;;6126174;23;20488;-88
2022/01/18 10:31:56;;;;;;;29.33;15.57;;;5.00;99.90;;;;;;6099913;23;20333;-89
2022/01/18 10:37:10;;;;;;;24.35;14.38;;;5.00;99.90;;;;;;6126031;23;20010;-90
2022/01/18 10:39:40;;;;;;;23.55;14.25;;;4.90;99.90;;;;;;6126027;23;20472;-87
2022/01/18 10:42:23;;;;;;;28.05;16.10;;;5.10;99.90;;;;;;6126041;23;20054;-88
2022/01/18 10:45:04;;;;;;;24.25;15.02;;;5.20;99.90;;;;;;6125424;23;20014;-87
2022/01/18 10:47:30;;;;;;;25.55;15.35;;;5.20;99.90;;;;;;6126282;23;20433;-87
2022/01/18 10:49:57;;;;;;;23.75;15.40;;;5.40;99.90;;;;;;6125376;23;20006;-88
2022/01/18 10:52:26;;;;;;;24.13;14.77;;;5.90;99.90;;;;;;6126120;23;20005;-88
2022/01/18 10:54:57;;;;;;;22.25;14.00;;;6.10;99.90;;;;;;6124977;23;20415;-85
2022/01/18 10:57:39;;;;;;;24.77;15.40;;;6.00;99.90;;;;;;6125708;23;20033;-84
2022/01/18 11:00:07;;;;;;;27.08;16.38;;;5.50;99.90;;;;;;6125654;23;20462;-85
2022/01/18 11:02:35;;;;;;;24.00;15.32;;;5.50;99.90;;;;;;6125459;23;20013;-86
2022/01/18 11:05:21;;;;;;;21.65;13.90;;;5.50;99.90;;;;;;6125558;23;20010;-86
2022/01/18 11:07:49;;;;;;;23.08;14.25;;;6.30;99.90;;;;;;6125141;23;20006;-83
2022/01/18 11:10:17;;;;;;;22.27;13.27;;;6.10;99.90;;;;;;6125546;23;20002;-84
2022/01/18 11:12:44;;;;;;;21.65;12.48;;;6.20;99.90;;;;;;6126389;23;19998;-85
2022/01/18 11:15:16;;;;;;;18.23;12.05;;;6.40;99.90;;;;;;6123724;23;20030;-84
2022/01/18 11:17:49;;;;;;;19.52;12.88;;;5.70;99.90;;;;;;6125165;23;20018;-92
2022/01/18 11:20:16;;;;;;;19.88;12.98;;;5.70;99.90;;;;;;6125906;23;20037;-89
2022/01/18 11:22:42;;;;;;;19.45;12.93;;;6.50;99.90;;;;;;6100186;23;20006;-90
2022/01/18 11:25:09;;;;;;;22.98;13.70;;;5.90;99.90;;;;;;6126670;23;20006;-92
2022/01/18 11:27:36;;;;;;;20.23;12.98;;;5.80;99.90;;;;;;6099958;23;20010;-91
2022/01/18 11:30:06;;;;;;;22.45;13.07;;;5.90;99.90;;;;;;6126204;23;20437;-85
2022/01/18 11:32:32;;;;;;;20.25;12.55;;;6.10;99.90;;;;;;6125737;23;20085;-92
2022/01/18 11:35:03;;;;;;;21.95;12.70;;;6.50;99.50;;;;;;6099505;23;20325;-90
2022/01/18 11:37:47;;;;;;;20.50;13.00;;;6.60;99.90;;;;;;6098570;23;20010;-91
2022/01/18 11:40:16;;;;;;;22.02;14.82;;;6.00;99.90;;;;;;6099827;23;20344;-92
2022/01/18 11:42:50;;;;;;;25.83;15.63;;;6.60;98.10;;;;;;6125813;23;20341;-92
2022/01/18 11:45:24;;;;;;;19.90;12.75;;;6.80;99.20;;;;;;6126641;23;20006;-88
2022/01/18 11:48:08;;;;;;;22.52;12.95;;;6.50;98.60;;;;;;6099989;23;20085;-92
2022/01/18 11:50:46;;;;;;;24.33;15.30;;;6.40;99.00;;;;;;6125911;23;20340;-88
2022/01/18 11:53:28;;;;;;;21.33;12.98;;;6.40;99.20;;;;;;6099903;23;20013;-88
2022/01/18 11:55:59;;;;;;;20.50;12.70;;;6.40;99.20;;;;;;6125296;23;20010;-87
2022/01/18 11:58:26;;;;;;;23.52;14.25;;;6.40;98.40;;;;;;6125654;23;20010;-88
2022/01/18 12:00:55;;;;;;;21.65;13.98;;;6.60;97.30;;;;;;6124946;23;20006;-88
2022/01/18 12:03:30;;;;;;;25.33;15.02;;;7.00;98.90;;;;;;6125230;23;20036;-87
2022/01/18 12:05:59;;;;;;;25.42;16.35;;;6.30;99.40;;;;;;6125553;23;20477;-89
2022/01/18 12:08:32;;;;;;;24.80;14.75;;;6.20;99.90;;;;;;6124914;23;20013;-90
2022/01/18 12:10:57;;;;;;;22.42;14.57;;;6.70;99.70;;;;;;6099014;23;20002;-91
2022/01/18 12:13:29;;;;;;;23.58;15.32;;;6.30;98.30;;;;;;6098053;23;20032;-91
2022/01/18 12:15:57;;;;;;;21.27;14.15;;;6.90;99.70;;;;;;6124785;23;20005;-89
2022/01/18 12:18:31;;;;;;;24.33;14.98;;;6.20;99.90;;;;;;6099191;23;20022;-88
2022/01/18 12:21:00;;;;;;;24.40;15.55;;;6.60;99.90;;;;;;6125194;23;20075;-86
2022/01/18 12:23:44;;;;;;;25.45;16.58;;;6.20;99.90;;;;;;6125335;23;20013;-90
2022/01/18 12:26:30;;;;;;;24.77;15.40;;;6.30;99.90;;;;;;6099171;23;20034;-88
2022/01/18 12:29:46;;;;;;;26.08;15.98;;;7.00;99.90;;;;;;6125830;23;20025;-89
2022/01/18 12:34:41;;;;;;;24.98;15.98;;;6.60;98.00;;;;;;6124626;23;20089;-88
2022/01/18 12:37:21;;;;;;;24.50;15.15;;;6.50;99.20;;;;;;6098645;23;20096;-88
2022/01/18 12:39:50;;;;;;;23.65;14.43;;;6.80;99.50;;;;;;6125108;23;20006;-88
2022/01/18 12:44:20;;;;;;;25.73;16.27;;;7.00;98.80;;;;;;6124794;23;20393;-88
2022/01/18 12:45:05;;;;;;;27.42;15.60;;;6.90;98.50;;;;;;6124338;23;20322;-88
2022/01/18 12:47:34;;;;;;;25.38;16.85;;;6.90;97.90;;;;;;6124480;23;20022;-89
2022/01/18 12:50:01;;;;;;;28.75;16.13;;;6.80;99.90;;;;;;6124360;23;20081;-88
2022/01/18 12:52:52;;;;;;;22.75;14.55;;;6.80;99.90;;;;;;6098606;23;20088;-88
2022/01/18 12:55:45;;;;;;;24.77;15.27;;;6.20;99.90;;;;;;6125266;23;20006;-88
2022/01/18 12:58:34;;;;;;;23.75;15.05;;;6.10;99.90;;;;;;6124891;23;20097;-88
2022/01/18 13:01:04;;;;;;;25.05;15.55;;;6.70;99.90;;;;;;6124045;23;20334;-88
2022/01/18 13:03:37;;;;;;;27.98;16.48;;;6.60;99.90;;;;;;6124188;23;20109;-88
2022/01/18 13:06:15;;;;;;;24.38;15.93;;;6.30;99.90;;;;;;6124366;23;20016;-88
2022/01/18 13:08:48;;;;;;;26.35;16.27;;;6.50;99.90;;;;;;6125143;23;20006;-88
2022/01/18 13:11:16;;;;;;;26.00;16.00;;;6.20;99.90;;;;;;6125424;23;20089;-88
2022/01/18 13:13:49;;;;;;;25.90;17.67;;;6.70;99.90;;;;;;6124194;23;20456;-88
2022/01/18 13:27:33;;;;;;;27.30;16.30;;;6.40;99.90;;;;;;6124335;23;20006;-88
2022/01/18 13:29:52;;;;;;;24.98;15.80;;;6.80;99.90;;;;;;6118821;23;20081;-89
2022/01/18 13:32:21;;;;;;;26.10;16.60;;;6.60;99.90;;;;;;6124854;23;20004;-89
2022/01/18 13:34:49;;;;;;;27.27;16.63;;;6.20;99.90;;;;;;6124717;23;20349;-88
2022/01/18 13:37:18;;;;;;;25.25;16.67;;;6.80;99.90;;;;;;6124404;23;20262;-88
2022/01/18 13:39:50;;;;;;;25.73;16.38;;;6.90;99.90;;;;;;6097813;23;20090;-88
2022/01/18 13:42:18;;;;;;;30.63;15.88;;;6.70;99.90;;;;;;6124852;23;20026;-88
2022/01/18 13:45:11;;;;;;;24.35;15.88;;;7.10;99.90;;;;;;6123987;23;20432;-88
2022/01/18 13:47:55;;;;;;;24.00;15.38;;;6.50;99.90;;;;;;6124498;23;20006;-87
2022/01/18 13:50:55;;;;;;;24.70;16.17;;;6.80;99.90;;;;;;6124597;23;20130;-88
2022/01/18 13:53:27;;;;;;;28.33;16.70;;;6.70;99.90;;;;;;6124372;23;20058;-89
2022/01/18 13:55:54;;;;;;;23.33;15.60;;;7.10;99.50;;;;;;6124358;23;20017;-89
2022/01/18 13:58:26;;;;;;;24.70;16.55;;;7.00;99.30;;;;;;6097504;23;20014;-89
2022/01/18 14:01:04;;;;;;;24.92;16.15;;;6.90;99.10;;;;;;6124265;23;20028;-88
2022/01/18 14:03:32;;;;;;;25.33;15.98;;;7.00;98.40;;;;;;6123924;23;20006;-88
2022/01/18 14:05:57;;;;;;;24.23;15.95;;;6.70;99.30;;;;;;6124194;23;20024;-89
2022/01/18 14:08:32;;;;;;;27.75;17.48;;;6.90;98.30;;;;;;6124934;23;20005;-89
2022/01/18 14:11:07;;;;;;;28.45;17.20;;;7.20;99.90;;;;;;6124101;23;19998;-89